Time;durP1;ratioP1;P1;durP2;ratioP2;P2;SDS_P1;SDS_P2;PMS_P1;PMS_P2;Temp;Humidity;BMP_temperature;BMP_pressure;BME280_temperature;BME280_humidity;BME280_pressure;Samples;Min_cycle;Max_cycle;Signal;HPM_P1;HPM_P2
2021/08/15 10:51:44;;;;;;;20.65;5.38;;;20.30;99.90;;;;;;6071881;22;1390627;-82
2021/08/15 10:54:27;;;;;;;17.75;4.65;;;20.40;99.90;;;;;;6099891;23;20022;-82
2021/08/15 10:56:58;;;;;;;12.48;3.88;;;20.60;99.90;;;;;;6116114;23;20022;-82
2021/08/15 10:59:39;;;;;;;14.02;3.88;;;20.60;99.90;;;;;;6123695;23;20092;-81
2021/08/15 11:02:19;;;;;;;10.32;3.20;;;20.70;99.90;;;;;;6110469;23;20026;-79
2021/08/15 11:04:57;;;;;;;15.23;3.80;;;20.60;99.90;;;;;;6125501;23;20026;-82
2021/08/15 11:07:50;;;;;;;14.20;4.00;;;20.50;99.90;;;;;;6123613;23;20068;-82
2021/08/15 11:10:17;;;;;;;14.73;4.10;;;20.40;99.90;;;;;;6121608;23;20261;-81
2021/08/15 11:13:44;;;;;;;15.43;3.58;;;20.40;99.90;;;;;;6016430;23;20199;-83
2021/08/15 11:50:38;;;;;;;;;;;;;;;;;;;;;
2021/08/15 12:04:06;;;;;;;13.13;3.00;;;20.80;99.90;;;;;;6028173;22;5236440;-80
2021/08/15 12:06:52;;;;;;;;;;;;;;;;;;;;;
2021/08/15 12:09:35;;;;;;;15.27;2.90;;;20.70;99.90;;;;;;6190074;23;19923;-84
2021/08/15 12:12:44;;;;;;;16.13;3.17;;;20.80;99.90;;;;;;6175176;23;20059;-83
2021/08/15 12:15:36;;;;;;;;;;;;;;;;;;;;;
2021/08/15 12:18:40;;;;;;;8.98;2.72;;;20.80;99.90;;;;;;6132275;23;20455;-81
2021/08/15 12:21:45;;;;;;;13.88;2.63;;;20.70;99.90;;;;;;6126416;23;20357;-84
2021/08/15 12:24:23;;;;;;;11.65;2.60;;;20.70;99.90;;;;;;6104974;23;20072;-83
2021/08/15 12:27:08;;;;;;;10.68;2.60;;;20.80;99.90;;;;;;6111898;23;20447;-83
2021/08/15 12:30:30;;;;;;;9.13;2.45;;;20.80;99.90;;;;;;5963023;23;20019;-84
2021/08/15 12:33:39;;;;;;;13.07;3.17;;;20.90;99.90;;;;;;5969077;23;20021;-81
2021/08/15 12:37:09;;;;;;;11.93;5.03;;;20.90;99.90;;;;;;6007121;23;20035;-84
2021/08/15 12:40:44;;;;;;;;;;;;;;;;;;;;;
2021/08/15 12:43:34;;;;;;;11.32;4.20;;;20.80;99.90;;;;;;6092139;23;20093;-81
2021/08/15 12:47:10;;;;;;;9.95;2.72;;;20.80;99.90;;;;;;5969662;23;20054;-83
2021/08/15 12:49:46;;;;;;;10.40;2.35;;;20.80;99.90;;;;;;6079856;23;20030;-82
2021/08/15 12:52:25;;;;;;;6.28;1.90;;;20.70;99.90;;;;;;6079846;23;20017;-83
2021/08/15 12:55:17;;;;;;;;;;;20.60;99.90;;;;;;5959073;23;20342;-83
2021/08/15 12:58:25;;;;;;;;;;;;;;;;;;;;;
2021/08/15 13:01:14;;;;;;;9.80;2.30;;;20.60;99.90;;;;;;5988397;23;20457;-84
2021/08/15 13:03:42;;;;;;;7.00;1.90;;;20.60;99.90;;;;;;5989421;23;20052;-81
2021/08/15 13:06:22;;;;;;;9.07;2.10;;;20.60;99.90;;;;;;6143329;23;20029;-83
2021/08/15 13:09:07;;;;;;;11.32;2.60;;;20.60;99.90;;;;;;6160699;23;20389;-83
2021/08/15 13:11:49;;;;;;;8.52;2.13;;;20.40;99.90;;;;;;6144936;23;20055;-83
2021/08/15 13:14:25;;;;;;;8.13;2.13;;;20.30;99.90;;;;;;6200099;22;20373;-82
2021/08/15 13:17:15;;;;;;;10.07;2.00;;;20.30;99.90;;;;;;6240936;22;20070;-82
2021/08/15 13:20:32;;;;;;;;;;;;;;;;;;;;;
2021/08/15 13:23:13;;;;;;;12.05;3.00;;;20.30;99.90;;;;;;6218085;22;20046;-83
2021/08/15 13:26:15;;;;;;;10.13;2.60;;;20.40;99.90;;;;;;6061209;23;20018;-83
2021/08/15 13:28:46;;;;;;;9.98;2.45;;;20.30;99.90;;;;;;6056724;23;20023;-83
2021/08/15 13:31:13;;;;;;;11.65;2.40;;;20.30;99.90;;;;;;6021520;23;20123;-82
2021/08/15 13:33:43;;;;;;;10.65;2.20;;;20.30;99.90;;;;;;6064593;23;20348;-83
2021/08/15 13:36:10;;;;;;;9.88;2.40;;;20.40;99.90;;;;;;6035893;23;20023;-78
2021/08/15 13:38:44;;;;;;;7.63;2.20;;;20.60;99.90;;;;;;6028769;23;20023;-82
2021/08/15 13:41:38;;;;;;;11.13;2.38;;;20.50;99.90;;;;;;6007791;23;20078;-84
2021/08/15 13:44:33;;;;;;;10.13;2.08;;;20.50;99.90;;;;;;6038522;23;20052;-84
2021/08/15 13:47:53;;;;;;;;;;;;;;;;;;;;;
2021/08/15 13:51:05;;;;;;;;;;;;;;;;;;;;;
2021/08/15 13:53:46;;;;;;;8.07;2.47;;;20.60;99.90;;;;;;6130979;23;20465;-83
2021/08/15 13:56:34;;;;;;;9.70;2.42;;;20.70;99.90;;;;;;6103332;23;20018;-83
2021/08/15 13:59:15;;;;;;;11.63;2.90;;;20.80;99.90;;;;;;6090762;23;20021;-81
2021/08/15 14:01:53;;;;;;;9.05;2.47;;;20.80;99.90;;;;;;6089475;23;20017;-83
2021/08/15 14:04:40;;;;;;;;;;;;;;;;;;;;;
2021/08/15 14:07:47;;;;;;;9.32;2.58;;;20.70;99.90;;;;;;6166774;23;20044;-83
2021/08/15 14:10:27;;;;;;;12.75;2.95;;;20.90;99.90;;;;;;6140286;23;20048;-82
2021/08/15 14:16:42;;;;;;;13.32;2.58;;;21.10;99.90;;;;;;6047408;23;20068;-83
2021/08/15 14:19:26;;;;;;;8.93;2.90;;;21.00;99.90;;;;;;6067299;23;20025;-83
2021/08/15 14:22:24;;;;;;;17.95;3.17;;;21.00;99.90;;;;;;6119606;23;20384;-79
2021/08/15 14:25:30;;;;;;;13.35;2.65;;;20.80;99.90;;;;;;6108988;23;20042;-84
2021/08/15 14:28:32;;;;;;;12.95;2.92;;;20.70;99.90;;;;;;6112027;23;20021;-83
2021/08/15 14:31:20;;;;;;;13.02;3.08;;;20.80;99.90;;;;;;6151024;23;20075;-83
2021/08/15 14:33:51;;;;;;;9.00;2.80;;;20.70;99.90;;;;;;6212617;23;20087;-82
2021/08/15 14:36:20;;;;;;;12.25;3.00;;;20.50;99.90;;;;;;6185066;23;20707;-83
2021/08/15 14:38:49;;;;;;;11.43;2.72;;;20.30;99.90;;;;;;6212859;23;20088;-82
2021/08/15 14:41:18;;;;;;;11.35;3.08;;;20.20;99.90;;;;;;6199273;23;20016;-81
2021/08/15 14:43:47;;;;;;;12.85;3.17;;;20.00;99.90;;;;;;6200023;23;20020;-82
2021/08/15 14:46:14;;;;;;;11.80;2.60;;;19.90;99.90;;;;;;6199161;23;20029;-82
2021/08/15 14:48:44;;;;;;;10.65;3.17;;;19.90;99.90;;;;;;6204155;23;20019;-82
2021/08/15 14:51:27;;;;;;;15.13;2.90;;;19.90;99.90;;;;;;6200721;23;20086;-84
2021/08/15 14:53:58;;;;;;;11.07;2.70;;;19.90;99.90;;;;;;6199573;23;20452;-83
2021/08/15 14:56:27;;;;;;;12.02;3.40;;;19.90;99.90;;;;;;6200000;23;20028;-82
2021/08/15 14:58:55;;;;;;;9.85;2.63;;;20.00;99.90;;;;;;6212809;23;20028;-82
2021/08/15 15:01:25;;;;;;;12.73;2.50;;;20.00;99.90;;;;;;6212151;23;20025;-82
2021/08/15 15:04:25;;;;;;;9.48;2.40;;;20.00;99.90;;;;;;6212699;22;20020;-83
2021/08/15 15:07:08;;;;;;;11.20;3.00;;;19.90;99.90;;;;;;6007890;23;20086;-82
2021/08/15 15:09:45;;;;;;;14.88;2.72;;;20.00;99.90;;;;;;6041467;23;20022;-81
2021/08/15 15:12:31;;;;;;;12.25;2.70;;;19.90;99.90;;;;;;6012058;23;20026;-80
2021/08/15 15:15:26;;;;;;;16.05;3.30;;;19.80;99.90;;;;;;6014856;23;20075;-83
2021/08/15 15:17:58;;;;;;;10.60;2.97;;;19.70;99.90;;;;;;5991356;23;20031;-82
2021/08/15 15:20:33;;;;;;;;;;;19.60;99.90;;;;;;6027768;23;20023;-80
2021/08/15 15:23:15;;;;;;;;;;;;;;;;;;;;;
2021/08/15 15:26:08;;;;;;;;;;;;;;;;;;;;;
2021/08/15 15:28:44;;;;;;;;;;;19.20;99.90;;;;;;6009460;23;20452;-83
2021/08/15 15:31:27;;;;;;;18.20;3.90;;;19.20;99.90;;;;;;6028733;23;20288;-82
2021/08/15 15:34:12;;;;;;;;;;;;;;;;;;;;;
2021/08/15 15:36:54;;;;;;;16.08;3.13;;;19.30;99.90;;;;;;5999237;23;20023;-82
2021/08/15 15:39:23;;;;;;;13.82;3.20;;;19.40;99.90;;;;;;5981725;23;20027;-84
2021/08/15 15:42:21;;;;;;;15.77;3.47;;;19.40;99.90;;;;;;5886253;23;20093;-82
2021/08/15 15:45:06;;;;;;;17.00;3.17;;;19.40;99.90;;;;;;6058330;23;20018;-82
2021/08/15 15:47:41;;;;;;;17.23;3.42;;;19.30;99.90;;;;;;6039990;23;20022;-84
2021/08/15 15:50:11;;;;;;;16.27;3.13;;;19.20;99.90;;;;;;6002160;23;20027;-82
2021/08/15 15:53:18;;;;;;;14.35;3.22;;;19.20;99.90;;;;;;5974977;23;20024;-82
2021/08/15 15:56:01;;;;;;;13.70;2.85;;;19.10;99.90;;;;;;5955100;23;20043;-83
2021/08/15 15:58:44;;;;;;;13.52;3.13;;;19.00;99.90;;;;;;5960382;23;20024;-83
2021/08/15 16:01:24;;;;;;;13.25;2.85;;;19.00;99.90;;;;;;5970596;23;20108;-82
2021/08/15 16:04:15;;;;;;;11.38;2.65;;;19.10;99.90;;;;;;5944947;23;20025;-82
2021/08/15 16:06:52;;;;;;;13.45;2.67;;;19.10;99.90;;;;;;5999036;23;20057;-82
2021/08/15 16:09:26;;;;;;;12.88;2.33;;;19.00;99.90;;;;;;6063474;23;20101;-81
2021/08/15 16:12:23;;;;;;;12.55;2.58;;;19.00;99.90;;;;;;6129425;23;20241;-82
2021/08/15 16:15:03;;;;;;;15.00;2.17;;;19.00;99.90;;;;;;6155109;23;20044;-83
2021/08/15 16:17:31;;;;;;;11.45;2.30;;;19.00;99.90;;;;;;6174273;23;20055;-83
2021/08/15 16:23:25;;;;;;;9.75;1.80;;;18.90;99.90;;;;;;6033265;23;20117;-82
2021/08/15 16:26:25;;;;;;;;;;;;;;;;;;;;;
2021/08/15 16:29:04;;;;;;;12.15;2.60;;;18.80;99.90;;;;;;6078493;23;20481;-82
2021/08/15 16:31:37;;;;;;;14.85;2.90;;;18.70;99.90;;;;;;6042933;23;20025;-82
2021/08/15 16:34:29;;;;;;;11.07;2.53;;;18.70;99.90;;;;;;6045969;23;20018;-83
2021/08/15 16:37:21;;;;;;;13.27;2.63;;;18.80;99.90;;;;;;6075353;23;20030;-81
2021/08/15 16:43:28;;;;;;;13.27;2.78;;;18.70;99.90;;;;;;6021532;23;20078;-83
2021/08/15 16:46:13;;;;;;;16.38;3.15;;;18.80;99.90;;;;;;6002780;23;20031;-83
2021/08/15 16:48:47;;;;;;;11.45;2.47;;;18.70;99.90;;;;;;6023241;23;20103;-79
2021/08/15 16:51:40;;;;;;;15.20;2.95;;;18.80;99.90;;;;;;5973716;23;20020;-81
2021/08/15 16:54:26;;;;;;;15.73;2.60;;;18.80;99.90;;;;;;5944396;23;20026;-82
2021/08/15 17:00:05;;;;;;;12.68;3.15;;;18.70;99.90;;;;;;6057095;23;20016;-83
2021/08/15 17:03:00;;;;;;;15.23;2.97;;;18.60;99.90;;;;;;6190576;23;20044;-82
2021/08/15 17:05:44;;;;;;;14.98;2.30;;;18.60;99.90;;;;;;6156587;23;20016;-82
2021/08/15 17:08:19;;;;;;;16.25;3.10;;;18.60;99.90;;;;;;6200717;23;20020;-81
2021/08/15 17:11:18;;;;;;;11.63;2.65;;;18.60;99.90;;;;;;6205255;23;20116;-80
2021/08/15 17:13:58;;;;;;;14.75;2.50;;;18.60;99.90;;;;;;6190017;23;20039;-83
2021/08/15 17:16:33;;;;;;;18.60;2.80;;;18.50;99.90;;;;;;6186030;23;20025;-82
2021/08/15 17:19:23;;;;;;;11.82;2.22;;;18.50;99.90;;;;;;6136022;23;20552;-81
2021/08/15 17:22:21;;;;;;;19.33;2.92;;;18.50;99.90;;;;;;6091497;23;20034;-82
2021/08/15 17:25:39;;;;;;;17.65;3.35;;;18.40;99.90;;;;;;6029361;23;20023;-80
2021/08/15 17:28:21;;;;;;;;;;;18.40;99.90;;;;;;6108746;23;20049;-81
2021/08/15 17:31:20;;;;;;;;;;;;;;;;;;;;;
2021/08/15 17:34:20;;;;;;;16.00;4.10;;;18.40;99.90;;;;;;6031905;23;20023;-83
2021/08/15 17:37:34;;;;;;;18.00;3.05;;;18.30;99.90;;;;;;6014864;23;20427;-83
2021/08/15 17:41:09;;;;;;;;;;;;;;;;;;;;;
2021/08/15 17:43:59;;;;;;;;;;;;;;;;;;;;;
2021/08/15 17:47:05;;;;;;;;;;;;;;;;;;;;;
2021/08/15 17:53:03;;;;;;;20.20;3.40;;;18.00;99.90;;;;;;5809400;24;20030;-82
2021/08/15 17:55:57;;;;;;;;;;;;;;;;;;;;;
2021/08/15 17:58:41;;;;;;;18.70;3.20;;;17.80;99.90;;;;;;5786260;24;20334;-83
2021/08/15 18:01:19;;;;;;;17.20;3.15;;;17.80;99.90;;;;;;5807798;24;20531;-81
2021/08/15 18:04:24;;;;;;;22.33;3.78;;;17.70;99.90;;;;;;5838914;24;20041;-83
2021/08/15 18:07:18;;;;;;;19.42;3.22;;;17.70;99.90;;;;;;5833043;24;20026;-82
2021/08/15 18:10:09;;;;;;;;;;;;;;;;;;;;;
2021/08/15 18:12:59;;;;;;;25.75;4.43;;;17.60;99.90;;;;;;5725847;24;20028;-81
2021/08/15 18:15:33;;;;;;;26.75;3.90;;;17.60;99.90;;;;;;5774433;24;20030;-82
2021/08/15 18:18:01;;;;;;;18.90;3.88;;;17.60;99.90;;;;;;5811967;24;20068;-81
2021/08/15 18:20:41;;;;;;;19.75;3.00;;;17.50;99.90;;;;;;5849214;24;20033;-83
2021/08/15 18:23:17;;;;;;;17.75;3.80;;;17.50;99.90;;;;;;6009981;23;20018;-81
2021/08/15 18:25:49;;;;;;;20.33;3.75;;;17.40;99.90;;;;;;6084678;23;20331;-82
2021/08/15 18:28:19;;;;;;;21.52;4.03;;;17.40;99.90;;;;;;6071039;23;20014;-83
2021/08/15 18:30:46;;;;;;;18.52;3.42;;;17.30;99.90;;;;;;6108295;23;20010;-82
2021/08/15 18:33:15;;;;;;;;;;;17.30;99.90;;;;;;6098167;23;20114;-83
2021/08/15 18:36:01;;;;;;;22.73;3.42;;;17.20;99.90;;;;;;6098365;23;19927;-83
2021/08/15 18:38:31;;;;;;;16.00;3.72;;;17.20;99.90;;;;;;6204753;22;20441;-80
2021/08/15 18:41:01;;;;;;;22.58;4.20;;;17.10;99.90;;;;;;6206204;22;20020;-83
2021/08/15 18:43:35;;;;;;;31.92;10.80;;;17.10;99.90;;;;;;6206166;22;20020;-83
2021/08/15 18:46:16;;;;;;;27.63;4.95;;;17.10;99.90;;;;;;6192735;22;20035;-80
2021/08/15 18:48:49;;;;;;;22.05;4.32;;;17.00;99.90;;;;;;6218918;22;20027;-81
2021/08/15 18:51:24;;;;;;;21.02;4.60;;;17.00;99.90;;;;;;6204962;22;20500;-83
2021/08/15 18:53:55;;;;;;;20.77;4.15;;;17.00;99.90;;;;;;6219304;23;20520;-81
2021/08/15 18:56:32;;;;;;;21.55;3.58;;;16.90;99.90;;;;;;6205265;22;20445;-82
2021/08/15 18:59:00;;;;;;;18.35;3.85;;;16.90;99.90;;;;;;6218267;22;20016;-80
2021/08/15 19:01:32;;;;;;;23.52;4.88;;;16.90;99.90;;;;;;6205813;22;20020;-83
2021/08/15 19:04:01;;;;;;;16.92;4.63;;;16.90;99.90;;;;;;6183173;23;20025;-82
2021/08/15 19:06:30;;;;;;;22.08;6.05;;;16.90;99.90;;;;;;6170689;23;20457;-80
2021/08/15 19:09:00;;;;;;;17.70;4.85;;;16.80;99.90;;;;;;6183075;23;20310;-82
2021/08/15 19:11:48;;;;;;;29.65;5.55;;;16.90;99.90;;;;;;6177918;23;20017;-82
2021/08/15 19:14:16;;;;;;;20.98;4.40;;;16.90;99.90;;;;;;6170187;23;20445;-80
2021/08/15 19:16:47;;;;;;;25.40;5.20;;;16.90;99.90;;;;;;6182957;23;20016;-81
2021/08/15 19:19:19;;;;;;;28.80;4.95;;;16.80;99.90;;;;;;6181937;23;20029;-82
2021/08/15 19:21:46;;;;;;;24.95;4.63;;;16.80;99.90;;;;;;6182610;23;20433;-82
2021/08/15 19:24:14;;;;;;;22.45;4.28;;;16.80;99.90;;;;;;6181493;23;20020;-82
2021/08/15 19:26:41;;;;;;;27.92;5.57;;;16.80;99.90;;;;;;6173976;23;20027;-83
2021/08/15 19:29:10;;;;;;;21.15;4.60;;;16.80;99.90;;;;;;6181744;23;20372;-82
2021/08/15 19:31:40;;;;;;;22.33;5.03;;;16.80;99.90;;;;;;6182050;23;20017;-82
2021/08/15 19:34:07;;;;;;;22.90;5.03;;;16.80;99.90;;;;;;6168876;23;20047;-83
2021/08/15 19:36:34;;;;;;;23.65;5.10;;;16.80;99.90;;;;;;6171144;23;20091;-81
2021/08/15 19:39:03;;;;;;;28.50;4.53;;;16.80;99.90;;;;;;6181921;23;20025;-81
2021/08/15 19:41:30;;;;;;;22.42;4.85;;;16.80;99.90;;;;;;6182037;23;20025;-83
2021/08/15 19:43:57;;;;;;;16.63;4.05;;;16.80;99.90;;;;;;6182358;23;20021;-82
2021/08/15 19:46:25;;;;;;;23.58;4.40;;;16.80;99.90;;;;;;6181834;23;20035;-80
2021/08/15 19:48:53;;;;;;;19.48;4.25;;;16.70;99.90;;;;;;6170572;23;20021;-81
2021/08/15 19:51:23;;;;;;;17.08;4.20;;;16.70;99.90;;;;;;6170441;23;20017;-82
2021/08/15 19:53:50;;;;;;;18.15;4.50;;;16.70;99.90;;;;;;6182803;23;20092;-82
2021/08/15 19:56:17;;;;;;;20.17;5.07;;;16.60;99.90;;;;;;6181365;23;20088;-83
2021/08/15 19:58:49;;;;;;;18.65;4.85;;;16.60;99.90;;;;;;6182385;23;20442;-82
2021/08/15 20:01:16;;;;;;;20.55;4.45;;;16.60;99.90;;;;;;6181475;23;20056;-82
2021/08/15 20:03:43;;;;;;;21.40;4.80;;;16.60;99.90;;;;;;6182507;23;20025;-82
2021/08/15 20:06:13;;;;;;;20.02;5.03;;;16.60;99.90;;;;;;6168789;23;20017;-82
2021/08/15 20:08:40;;;;;;;;;;;16.60;99.90;;;;;;6172771;23;20496;-82
2021/08/15 20:11:18;;;;;;;14.77;4.75;;;16.60;99.90;;;;;;6172262;23;19916;-82
2021/08/15 20:13:47;;;;;;;21.60;5.20;;;16.50;99.90;;;;;;6183039;23;20065;-82
2021/08/15 20:16:14;;;;;;;19.45;5.93;;;16.50;99.90;;;;;;6172727;23;20320;-82
2021/08/15 20:18:42;;;;;;;20.80;5.50;;;16.50;99.90;;;;;;6184903;23;20047;-82
2021/08/15 20:21:17;;;;;;;26.92;5.80;;;16.40;99.90;;;;;;6171973;23;20017;-81
2021/08/15 20:23:47;;;;;;;23.55;5.65;;;16.50;99.90;;;;;;6170161;23;20016;-82
2021/08/15 20:26:14;;;;;;;32.85;6.45;;;16.40;99.90;;;;;;6169647;23;20075;-82
2021/08/15 20:28:47;;;;;;;26.55;5.38;;;16.50;99.90;;;;;;6172621;23;20020;-81
2021/08/15 20:31:20;;;;;;;27.80;5.88;;;16.50;99.90;;;;;;6172292;23;20020;-82
2021/08/15 20:33:50;;;;;;;34.03;6.82;;;16.50;99.90;;;;;;6175308;23;20017;-80
2021/08/15 20:36:29;;;;;;;26.42;5.18;;;16.50;99.90;;;;;;6169802;23;20105;-81
2021/08/15 20:38:57;;;;;;;23.65;5.93;;;16.50;99.90;;;;;;6172937;23;20020;-82
2021/08/15 20:41:24;;;;;;;23.35;5.47;;;16.50;99.90;;;;;;6182970;23;20054;-81
2021/08/15 20:44:16;;;;;;;27.37;5.50;;;16.50;99.90;;;;;;6050838;23;20027;-82
2021/08/15 20:46:44;;;;;;;23.45;5.28;;;16.40;99.90;;;;;;6038254;23;20019;-82
2021/08/15 20:49:13;;;;;;;19.13;4.72;;;16.40;99.90;;;;;;6016563;23;20023;-82
2021/08/15 20:51:44;;;;;;;23.05;4.95;;;16.40;99.90;;;;;;6031513;23;20026;-82
2021/08/15 20:54:30;;;;;;;27.40;5.80;;;16.40;99.90;;;;;;6063762;23;20031;-80
2021/08/15 20:56:59;;;;;;;30.45;6.40;;;16.40;99.90;;;;;;6065223;23;20019;-82
2021/08/15 20:59:29;;;;;;;21.95;5.57;;;16.40;99.90;;;;;;6064153;23;20022;-82
2021/08/15 21:01:56;;;;;;;29.23;5.85;;;16.40;99.90;;;;;;6104609;22;20094;-80
2021/08/15 21:04:26;;;;;;;21.30;5.07;;;16.40;99.90;;;;;;6201060;22;20054;-82
2021/08/15 21:07:10;;;;;;;;;;;;;;;;;;;;;
2021/08/15 21:10:47;;;;;;;;;;;;;;;;;;;;;
2021/08/15 21:28:45;;;;;;;;;;;;;;;;;;;;;
2021/08/15 21:31:43;;;;;;;24.30;5.50;;;16.30;99.90;;;;;;4994663;28;20050;-82
2021/08/15 21:35:14;;;;;;;33.42;5.47;;;16.30;99.90;;;;;;4959574;28;20138;-80
2021/08/15 21:38:15;;;;;;;28.83;6.05;;;16.30;99.90;;;;;;4845195;29;20041;-81
2021/08/15 21:41:14;;;;;;;22.40;5.97;;;16.30;99.90;;;;;;4911935;28;20044;-83
2021/08/15 21:44:29;;;;;;;25.88;6.80;;;16.30;99.90;;;;;;4890011;28;21598;-83
2021/08/15 21:47:23;;;;;;;;;;;;;;;;;;;;;
2021/08/15 21:50:10;;;;;;;18.55;5.57;;;16.20;99.90;;;;;;4926408;28;20044;-83
2021/08/15 21:52:41;;;;;;;29.60;6.10;;;16.20;99.90;;;;;;4890380;28;20056;-83
2021/08/15 21:55:44;;;;;;;25.30;5.78;;;16.20;99.90;;;;;;4927044;28;20472;-82
2021/08/15 21:59:08;;;;;;;20.35;5.55;;;16.20;99.90;;;;;;5002485;28;20048;-83
2021/08/15 22:02:19;;;;;;;17.75;4.45;;;16.20;99.90;;;;;;4858604;29;20682;-83
2021/08/15 22:11:47;;;;;;;20.88;5.10;;;16.20;99.90;;;;;;4789363;29;20052;-82
2021/08/15 22:14:40;;;;;;;11.32;3.92;;;16.20;99.90;;;;;;4776142;29;20045;-80
2021/08/15 22:17:06;;;;;;;15.02;4.05;;;16.20;99.90;;;;;;4828530;29;20144;-79
2021/08/15 22:23:15;;;;;;;;;;;;;;;;;;;;;
2021/08/15 22:25:42;;;;;;;11.70;3.70;;;16.20;99.90;;;;;;4806269;29;20045;-82
2021/08/15 22:31:52;;;;;;;13.43;4.07;;;16.30;99.90;;;;;;4813255;29;20155;-83
2021/08/15 22:34:21;;;;;;;13.52;3.83;;;16.20;99.90;;;;;;4801807;29;20494;-82
2021/08/15 22:36:46;;;;;;;11.82;3.60;;;16.30;99.90;;;;;;4822426;29;20037;-82
2021/08/15 22:39:23;;;;;;;12.02;4.10;;;16.20;99.90;;;;;;4928519;28;20113;-82
2021/08/15 22:42:29;;;;;;;;;;;;;;;;;;;;;
2021/08/15 22:45:35;;;;;;;;;;;;;;;;;;;;;
2021/08/15 22:48:18;;;;;;;14.63;4.65;;;16.30;99.90;;;;;;4835869;28;20080;-81
2021/08/15 22:50:48;;;;;;;16.10;4.65;;;16.30;99.90;;;;;;4918196;29;20058;-82
2021/08/15 22:53:15;;;;;;;19.60;5.13;;;16.20;99.90;;;;;;4947521;28;20100;-80
2021/08/15 22:55:42;;;;;;;27.65;6.70;;;16.30;99.90;;;;;;4951980;28;20047;-81
2021/08/15 22:58:29;;;;;;;21.27;5.97;;;16.30;99.90;;;;;;4943517;28;20043;-81
2021/08/15 23:00:56;;;;;;;28.88;6.03;;;16.30;99.90;;;;;;4919361;29;20061;-82
2021/08/15 23:03:24;;;;;;;26.63;6.35;;;16.30;99.90;;;;;;4939020;28;20086;-80
2021/08/15 23:05:54;;;;;;;22.48;6.10;;;16.40;99.90;;;;;;4940180;28;20110;-82
2021/08/15 23:08:27;;;;;;;24.05;5.95;;;16.40;99.90;;;;;;4948012;28;20150;-82
2021/08/15 23:10:54;;;;;;;27.95;6.07;;;16.40;99.90;;;;;;4941207;28;20486;-82
2021/08/15 23:13:23;;;;;;;35.40;7.00;;;16.40;99.90;;;;;;4951164;28;20440;-80
2021/08/15 23:15:57;;;;;;;28.33;6.57;;;16.40;99.90;;;;;;4919756;28;20071;-82
2021/08/15 23:18:24;;;;;;;33.78;7.13;;;16.40;99.90;;;;;;4933952;28;20049;-82
2021/08/15 23:20:53;;;;;;;31.98;7.07;;;16.50;99.90;;;;;;5005404;28;20069;-81
2021/08/15 23:23:23;;;;;;;40.30;7.53;;;16.50;99.90;;;;;;4989266;28;20058;-82
2021/08/15 23:25:53;;;;;;;37.10;6.95;;;16.50;99.90;;;;;;4996897;28;20058;-80
2021/08/15 23:28:20;;;;;;;39.13;7.63;;;16.50;99.90;;;;;;5010714;28;20050;-81
2021/08/15 23:30:47;;;;;;;43.67;7.15;;;16.50;99.90;;;;;;5007851;28;20056;-81
2021/08/15 23:33:14;;;;;;;28.90;5.95;;;16.50;99.90;;;;;;4995341;28;20043;-81
2021/08/15 23:35:41;;;;;;;33.03;7.60;;;16.50;99.90;;;;;;4990387;28;20050;-81
2021/08/15 23:38:08;;;;;;;35.78;7.90;;;16.50;99.90;;;;;;4996598;28;20049;-79
2021/08/15 23:40:40;;;;;;;36.72;7.15;;;16.50;99.90;;;;;;5011800;28;20042;-81
2021/08/15 23:43:10;;;;;;;33.92;6.43;;;16.50;99.90;;;;;;4995482;28;20527;-81
2021/08/15 23:45:37;;;;;;;37.75;6.72;;;16.50;99.90;;;;;;4994898;28;20125;-82
2021/08/15 23:48:21;;;;;;;43.63;7.20;;;16.50;99.90;;;;;;4994488;28;20046;-82
2021/08/15 23:50:55;;;;;;;40.05;6.75;;;16.50;99.90;;;;;;5004229;28;20472;-82
2021/08/15 23:53:22;;;;;;;39.42;7.55;;;16.50;99.90;;;;;;5006742;28;20544;-81
2021/08/15 23:55:50;;;;;;;36.47;7.40;;;16.50;99.90;;;;;;5010387;28;20392;-82
2021/08/15 23:58:17;;;;;;;33.10;7.00;;;16.50;99.90;;;;;;4996601;28;20503;-81
